sensor_id;sensor_type;location;lat;lon;timestamp;P1;durP1;ratioP1;P2;durP2;ratioP2
73672;SDS011;61972;19.480;-99.240;2022-08-03T00:00:41;6.07;;;3.30;;
73672;SDS011;61972;19.480;-99.240;2022-08-03T00:03:07;6.90;;;2.92;;
73672;SDS011;61972;19.480;-99.240;2022-08-03T00:05:33;5.32;;;3.30;;
73672;SDS011;61972;19.480;-99.240;2022-08-03T00:08:00;5.00;;;2.88;;
73672;SDS011;61972;19.480;-99.240;2022-08-03T00:10:26;5.03;;;2.97;;
73672;SDS011;61972;19.480;-99.240;2022-08-03T00:12:52;7.47;;;3.33;;
73672;SDS011;61972;19.480;-99.240;2022-08-03T00:15:19;6.82;;;3.25;;
73672;SDS011;61972;19.480;-99.240;2022-08-03T00:17:45;7.78;;;3.33;;
73672;SDS011;61972;19.480;-99.240;2022-08-03T00:20:11;7.10;;;3.33;;
73672;SDS011;61972;19.480;-99.240;2022-08-03T00:22:37;4.97;;;3.13;;
73672;SDS011;61972;19.480;-99.240;2022-08-03T00:25:04;6.33;;;3.30;;
73672;SDS011;61972;19.480;-99.240;2022-08-03T00:27:30;5.10;;;3.00;;
73672;SDS011;61972;19.480;-99.240;2022-08-03T00:29:56;6.25;;;2.90;;
73672;SDS011;61972;19.480;-99.240;2022-08-03T00:32:22;10.25;;;2.92;;
73672;SDS011;61972;19.480;-99.240;2022-08-03T00:34:48;7.68;;;3.17;;
73672;SDS011;61972;19.480;-99.240;2022-08-03T00:37:14;7.90;;;3.13;;
73672;SDS011;61972;19.480;-99.240;2022-08-03T00:39:40;4.90;;;2.70;;
73672;SDS011;61972;19.480;-99.240;2022-08-03T00:42:10;7.07;;;3.10;;
73672;SDS011;61972;19.480;-99.240;2022-08-03T00:44:39;8.02;;;3.40;;
73672;SDS011;61972;19.480;-99.240;2022-08-03T00:47:06;6.78;;;3.17;;
73672;SDS011;61972;19.480;-99.240;2022-08-03T00:49:32;4.87;;;2.80;;
73672;SDS011;61972;19.480;-99.240;2022-08-03T00:51:59;4.22;;;2.97;;
73672;SDS011;61972;19.480;-99.240;2022-08-03T00:54:25;5.85;;;3.50;;
73672;SDS011;61972;19.480;-99.240;2022-08-03T00:56:52;5.75;;;3.25;;
73672;SDS011;61972;19.480;-99.240;2022-08-03T00:59:19;5.03;;;3.22;;
73672;SDS011;61972;19.480;-99.240;2022-08-03T01:01:46;6.70;;;3.20;;
73672;SDS011;61972;19.480;-99.240;2022-08-03T01:04:12;6.75;;;3.53;;
73672;SDS011;61972;19.480;-99.240;2022-08-03T01:06:45;6.45;;;3.13;;
73672;SDS011;61972;19.480;-99.240;2022-08-03T01:09:59;6.63;;;3.20;;
73672;SDS011;61972;19.480;-99.240;2022-08-03T01:12:28;5.70;;;2.90;;
73672;SDS011;61972;19.480;-99.240;2022-08-03T01:17:50;5.85;;;3.50;;
73672;SDS011;61972;19.480;-99.240;2022-08-03T01:20:21;5.07;;;3.40;;
73672;SDS011;61972;19.480;-99.240;2022-08-03T01:22:58;5.38;;;2.90;;
73672;SDS011;61972;19.480;-99.240;2022-08-03T01:28:21;5.57;;;3.00;;
73672;SDS011;61972;19.480;-99.240;2022-08-03T01:31:00;4.82;;;2.75;;
73672;SDS011;61972;19.480;-99.240;2022-08-03T01:33:42;5.63;;;2.88;;
73672;SDS011;61972;19.480;-99.240;2022-08-03T01:36:25;4.53;;;2.78;;
73672;SDS011;61972;19.480;-99.240;2022-08-03T01:38:59;5.03;;;2.80;;
73672;SDS011;61972;19.480;-99.240;2022-08-03T01:41:33;6.40;;;2.80;;
73672;SDS011;61972;19.480;-99.240;2022-08-03T01:44:03;6.53;;;2.83;;
73672;SDS011;61972;19.480;-99.240;2022-08-03T01:46:33;5.03;;;3.25;;
73672;SDS011;61972;19.480;-99.240;2022-08-03T01:49:00;7.75;;;3.42;;
73672;SDS011;61972;19.480;-99.240;2022-08-03T01:51:28;9.45;;;3.70;;
73672;SDS011;61972;19.480;-99.240;2022-08-03T01:53:56;7.03;;;3.57;;
73672;SDS011;61972;19.480;-99.240;2022-08-03T01:56:24;6.63;;;3.70;;
73672;SDS011;61972;19.480;-99.240;2022-08-03T01:58:51;6.05;;;3.65;;
73672;SDS011;61972;19.480;-99.240;2022-08-03T02:01:19;6.43;;;3.90;;
73672;SDS011;61972;19.480;-99.240;2022-08-03T02:03:47;6.50;;;3.40;;
73672;SDS011;61972;19.480;-99.240;2022-08-03T02:06:14;5.80;;;3.97;;
73672;SDS011;61972;19.480;-99.240;2022-08-03T02:08:44;6.70;;;3.70;;
73672;SDS011;61972;19.480;-99.240;2022-08-03T02:11:11;6.20;;;3.90;;
73672;SDS011;61972;19.480;-99.240;2022-08-03T02:13:38;7.65;;;3.60;;
73672;SDS011;61972;19.480;-99.240;2022-08-03T02:16:04;7.43;;;3.72;;
73672;SDS011;61972;19.480;-99.240;2022-08-03T02:18:32;7.10;;;3.90;;
73672;SDS011;61972;19.480;-99.240;2022-08-03T02:21:02;9.23;;;3.58;;
73672;SDS011;61972;19.480;-99.240;2022-08-03T02:23:29;6.20;;;3.50;;
73672;SDS011;61972;19.480;-99.240;2022-08-03T02:25:57;7.68;;;3.60;;
73672;SDS011;61972;19.480;-99.240;2022-08-03T02:28:27;6.43;;;3.30;;
73672;SDS011;61972;19.480;-99.240;2022-08-03T02:30:59;6.23;;;3.50;;
73672;SDS011;61972;19.480;-99.240;2022-08-03T02:33:38;6.28;;;2.95;;
73672;SDS011;61972;19.480;-99.240;2022-08-03T02:36:08;5.72;;;3.10;;
73672;SDS011;61972;19.480;-99.240;2022-08-03T02:38:38;6.18;;;3.10;;
73672;SDS011;61972;19.480;-99.240;2022-08-03T02:41:08;5.82;;;3.28;;
73672;SDS011;61972;19.480;-99.240;2022-08-03T02:43:41;5.10;;;2.93;;
73672;SDS011;61972;19.480;-99.240;2022-08-03T02:46:12;6.55;;;3.00;;
73672;SDS011;61972;19.480;-99.240;2022-08-03T02:48:41;6.15;;;2.70;;
73672;SDS011;61972;19.480;-99.240;2022-08-03T02:51:08;4.22;;;2.60;;
73672;SDS011;61972;19.480;-99.240;2022-08-03T02:53:34;4.90;;;2.60;;
73672;SDS011;61972;19.480;-99.240;2022-08-03T02:56:01;4.90;;;2.70;;
73672;SDS011;61972;19.480;-99.240;2022-08-03T02:58:28;6.78;;;2.67;;
73672;SDS011;61972;19.480;-99.240;2022-08-03T03:00:56;4.25;;;2.75;;
73672;SDS011;61972;19.480;-99.240;2022-08-03T03:03:23;5.93;;;3.05;;
73672;SDS011;61972;19.480;-99.240;2022-08-03T03:05:50;6.85;;;2.95;;
73672;SDS011;61972;19.480;-99.240;2022-08-03T03:08:18;4.93;;;2.93;;
73672;SDS011;61972;19.480;-99.240;2022-08-03T03:10:46;5.90;;;2.75;;
73672;SDS011;61972;19.480;-99.240;2022-08-03T03:13:13;5.97;;;2.97;;
73672;SDS011;61972;19.480;-99.240;2022-08-03T03:15:41;4.68;;;3.00;;
73672;SDS011;61972;19.480;-99.240;2022-08-03T03:18:09;4.43;;;2.72;;
73672;SDS011;61972;19.480;-99.240;2022-08-03T03:20:36;6.57;;;2.80;;
73672;SDS011;61972;19.480;-99.240;2022-08-03T03:23:05;5.80;;;2.97;;
73672;SDS011;61972;19.480;-99.240;2022-08-03T03:25:32;5.38;;;2.85;;
73672;SDS011;61972;19.480;-99.240;2022-08-03T03:28:00;10.10;;;3.05;;
73672;SDS011;61972;19.480;-99.240;2022-08-03T03:30:27;6.70;;;2.80;;
73672;SDS011;61972;19.480;-99.240;2022-08-03T03:32:54;7.53;;;2.87;;
73672;SDS011;61972;19.480;-99.240;2022-08-03T03:35:21;6.82;;;3.00;;
73672;SDS011;61972;19.480;-99.240;2022-08-03T03:37:48;7.43;;;3.00;;
73672;SDS011;61972;19.480;-99.240;2022-08-03T03:40:14;6.35;;;2.88;;
73672;SDS011;61972;19.480;-99.240;2022-08-03T03:42:40;6.47;;;2.53;;
73672;SDS011;61972;19.480;-99.240;2022-08-03T03:45:07;11.10;;;3.20;;
73672;SDS011;61972;19.480;-99.240;2022-08-03T03:47:34;7.72;;;3.50;;
73672;SDS011;61972;19.480;-99.240;2022-08-03T03:50:02;9.95;;;3.35;;
73672;SDS011;61972;19.480;-99.240;2022-08-03T03:52:28;12.40;;;3.13;;
73672;SDS011;61972;19.480;-99.240;2022-08-03T03:54:54;7.63;;;3.30;;
73672;SDS011;61972;19.480;-99.240;2022-08-03T03:57:20;9.97;;;2.90;;
73672;SDS011;61972;19.480;-99.240;2022-08-03T03:59:46;8.90;;;3.17;;
73672;SDS011;61972;19.480;-99.240;2022-08-03T04:02:13;8.82;;;3.42;;
73672;SDS011;61972;19.480;-99.240;2022-08-03T04:04:39;4.93;;;2.92;;
73672;SDS011;61972;19.480;-99.240;2022-08-03T04:07:24;7.57;;;2.83;;
73672;SDS011;61972;19.480;-99.240;2022-08-03T04:10:15;7.17;;;2.57;;
73672;SDS011;61972;19.480;-99.240;2022-08-03T04:13:03;7.75;;;2.85;;
73672;SDS011;61972;19.480;-99.240;2022-08-03T04:15:37;5.65;;;3.00;;
73672;SDS011;61972;19.480;-99.240;2022-08-03T04:18:05;5.25;;;3.00;;
73672;SDS011;61972;19.480;-99.240;2022-08-03T04:20:36;5.43;;;2.78;;
73672;SDS011;61972;19.480;-99.240;2022-08-03T04:23:05;6.30;;;2.90;;
73672;SDS011;61972;19.480;-99.240;2022-08-03T04:25:33;5.95;;;2.83;;
73672;SDS011;61972;19.480;-99.240;2022-08-03T04:28:04;5.43;;;3.03;;
73672;SDS011;61972;19.480;-99.240;2022-08-03T04:30:30;5.28;;;2.60;;
73672;SDS011;61972;19.480;-99.240;2022-08-03T04:33:00;5.30;;;2.75;;
73672;SDS011;61972;19.480;-99.240;2022-08-03T04:35:30;5.03;;;2.63;;
73672;SDS011;61972;19.480;-99.240;2022-08-03T04:38:00;5.45;;;2.97;;
73672;SDS011;61972;19.480;-99.240;2022-08-03T04:40:34;6.43;;;2.72;;
73672;SDS011;61972;19.480;-99.240;2022-08-03T04:43:04;6.10;;;2.33;;
73672;SDS011;61972;19.480;-99.240;2022-08-03T04:45:30;5.03;;;2.67;;
73672;SDS011;61972;19.480;-99.240;2022-08-03T04:47:58;6.47;;;2.70;;
73672;SDS011;61972;19.480;-99.240;2022-08-03T04:50:24;4.38;;;2.35;;
73672;SDS011;61972;19.480;-99.240;2022-08-03T04:52:52;5.68;;;2.40;;
73672;SDS011;61972;19.480;-99.240;2022-08-03T04:55:27;7.30;;;2.40;;
73672;SDS011;61972;19.480;-99.240;2022-08-03T04:57:55;6.57;;;2.20;;
73672;SDS011;61972;19.480;-99.240;2022-08-03T05:00:21;4.13;;;2.10;;
73672;SDS011;61972;19.480;-99.240;2022-08-03T05:02:48;3.97;;;2.20;;
73672;SDS011;61972;19.480;-99.240;2022-08-03T05:05:15;5.25;;;2.40;;
73672;SDS011;61972;19.480;-99.240;2022-08-03T05:07:41;4.68;;;2.30;;
73672;SDS011;61972;19.480;-99.240;2022-08-03T05:10:09;5.10;;;2.35;;
73672;SDS011;61972;19.480;-99.240;2022-08-03T05:12:36;3.00;;;1.97;;
73672;SDS011;61972;19.480;-99.240;2022-08-03T05:15:02;3.70;;;2.10;;
73672;SDS011;61972;19.480;-99.240;2022-08-03T05:17:29;5.38;;;2.20;;
73672;SDS011;61972;19.480;-99.240;2022-08-03T05:19:55;5.05;;;2.28;;
73672;SDS011;61972;19.480;-99.240;2022-08-03T05:22:22;3.35;;;2.08;;
73672;SDS011;61972;19.480;-99.240;2022-08-03T05:24:48;3.73;;;2.07;;
73672;SDS011;61972;19.480;-99.240;2022-08-03T05:27:14;3.80;;;2.13;;
73672;SDS011;61972;19.480;-99.240;2022-08-03T05:29:47;4.85;;;2.20;;
73672;SDS011;61972;19.480;-99.240;2022-08-03T05:32:18;3.53;;;1.98;;
73672;SDS011;61972;19.480;-99.240;2022-08-03T05:34:44;4.35;;;2.30;;
73672;SDS011;61972;19.480;-99.240;2022-08-03T05:37:12;3.47;;;2.10;;
73672;SDS011;61972;19.480;-99.240;2022-08-03T05:39:38;3.55;;;2.10;;
73672;SDS011;61972;19.480;-99.240;2022-08-03T05:42:04;3.95;;;2.20;;
73672;SDS011;61972;19.480;-99.240;2022-08-03T05:44:30;3.88;;;2.20;;
73672;SDS011;61972;19.480;-99.240;2022-08-03T05:46:57;4.43;;;2.10;;
73672;SDS011;61972;19.480;-99.240;2022-08-03T05:49:23;4.27;;;2.03;;
73672;SDS011;61972;19.480;-99.240;2022-08-03T05:51:49;3.85;;;2.13;;
73672;SDS011;61972;19.480;-99.240;2022-08-03T05:54:18;3.97;;;2.17;;
73672;SDS011;61972;19.480;-99.240;2022-08-03T05:56:44;3.35;;;2.00;;
73672;SDS011;61972;19.480;-99.240;2022-08-03T05:59:10;3.22;;;1.63;;
73672;SDS011;61972;19.480;-99.240;2022-08-03T06:01:36;3.30;;;2.03;;
73672;SDS011;61972;19.480;-99.240;2022-08-03T06:04:02;2.80;;;2.00;;
73672;SDS011;61972;19.480;-99.240;2022-08-03T06:06:28;5.18;;;2.15;;
73672;SDS011;61972;19.480;-99.240;2022-08-03T06:08:55;2.88;;;1.88;;
73672;SDS011;61972;19.480;-99.240;2022-08-03T06:11:21;3.10;;;2.00;;
73672;SDS011;61972;19.480;-99.240;2022-08-03T06:17:00;4.30;;;1.90;;
73672;SDS011;61972;19.480;-99.240;2022-08-03T06:19:26;3.50;;;1.85;;
73672;SDS011;61972;19.480;-99.240;2022-08-03T06:21:55;3.10;;;1.83;;
73672;SDS011;61972;19.480;-99.240;2022-08-03T06:24:27;3.33;;;1.80;;
73672;SDS011;61972;19.480;-99.240;2022-08-03T06:26:53;5.30;;;2.00;;
73672;SDS011;61972;19.480;-99.240;2022-08-03T06:29:27;3.03;;;1.70;;
73672;SDS011;61972;19.480;-99.240;2022-08-03T06:31:54;4.10;;;1.80;;
73672;SDS011;61972;19.480;-99.240;2022-08-03T06:34:20;3.00;;;1.70;;
73672;SDS011;61972;19.480;-99.240;2022-08-03T06:36:46;3.72;;;1.98;;
73672;SDS011;61972;19.480;-99.240;2022-08-03T06:39:14;3.43;;;1.80;;
73672;SDS011;61972;19.480;-99.240;2022-08-03T06:41:41;3.47;;;1.67;;
73672;SDS011;61972;19.480;-99.240;2022-08-03T06:44:07;3.72;;;1.77;;
73672;SDS011;61972;19.480;-99.240;2022-08-03T06:46:33;4.10;;;2.20;;
73672;SDS011;61972;19.480;-99.240;2022-08-03T06:49:02;3.63;;;2.03;;
73672;SDS011;61972;19.480;-99.240;2022-08-03T06:51:28;2.93;;;1.93;;
73672;SDS011;61972;19.480;-99.240;2022-08-03T06:53:55;4.47;;;1.90;;
73672;SDS011;61972;19.480;-99.240;2022-08-03T06:56:21;4.10;;;2.20;;
73672;SDS011;61972;19.480;-99.240;2022-08-03T06:58:56;2.72;;;2.10;;
73672;SDS011;61972;19.480;-99.240;2022-08-03T07:01:22;3.03;;;1.95;;
73672;SDS011;61972;19.480;-99.240;2022-08-03T07:03:48;3.77;;;2.10;;
73672;SDS011;61972;19.480;-99.240;2022-08-03T07:06:14;3.50;;;1.98;;
73672;SDS011;61972;19.480;-99.240;2022-08-03T07:08:40;3.25;;;2.10;;
73672;SDS011;61972;19.480;-99.240;2022-08-03T07:11:06;3.28;;;1.90;;
73672;SDS011;61972;19.480;-99.240;2022-08-03T07:13:32;3.85;;;2.35;;
73672;SDS011;61972;19.480;-99.240;2022-08-03T07:15:58;3.77;;;2.00;;
73672;SDS011;61972;19.480;-99.240;2022-08-03T07:18:25;3.33;;;1.85;;
73672;SDS011;61972;19.480;-99.240;2022-08-03T07:24:03;3.35;;;2.17;;
73672;SDS011;61972;19.480;-99.240;2022-08-03T07:26:29;3.72;;;2.35;;
73672;SDS011;61972;19.480;-99.240;2022-08-03T07:28:55;3.03;;;1.87;;
73672;SDS011;61972;19.480;-99.240;2022-08-03T07:31:21;3.80;;;2.30;;
73672;SDS011;61972;19.480;-99.240;2022-08-03T07:36:38;4.55;;;2.40;;
73672;SDS011;61972;19.480;-99.240;2022-08-03T07:39:04;3.75;;;2.20;;
73672;SDS011;61972;19.480;-99.240;2022-08-03T07:44:52;3.00;;;2.10;;
73672;SDS011;61972;19.480;-99.240;2022-08-03T07:47:36;4.30;;;2.45;;
73672;SDS011;61972;19.480;-99.240;2022-08-03T07:50:03;4.10;;;2.35;;
73672;SDS011;61972;19.480;-99.240;2022-08-03T07:52:30;4.22;;;2.58;;
73672;SDS011;61972;19.480;-99.240;2022-08-03T07:55:24;3.10;;;1.97;;
73672;SDS011;61972;19.480;-99.240;2022-08-03T07:58:00;4.03;;;2.25;;
73672;SDS011;61972;19.480;-99.240;2022-08-03T08:00:28;3.33;;;2.42;;
73672;SDS011;61972;19.480;-99.240;2022-08-03T08:02:54;4.38;;;2.38;;
73672;SDS011;61972;19.480;-99.240;2022-08-03T08:05:20;3.88;;;2.45;;
73672;SDS011;61972;19.480;-99.240;2022-08-03T08:07:46;4.13;;;2.43;;
73672;SDS011;61972;19.480;-99.240;2022-08-03T08:10:12;3.72;;;2.20;;
73672;SDS011;61972;19.480;-99.240;2022-08-03T08:12:38;3.80;;;2.72;;
73672;SDS011;61972;19.480;-99.240;2022-08-03T08:15:05;3.63;;;2.45;;
73672;SDS011;61972;19.480;-99.240;2022-08-03T08:17:48;3.83;;;2.80;;
73672;SDS011;61972;19.480;-99.240;2022-08-03T08:20:16;3.20;;;2.23;;
73672;SDS011;61972;19.480;-99.240;2022-08-03T08:22:44;5.82;;;2.25;;
73672;SDS011;61972;19.480;-99.240;2022-08-03T08:25:10;3.83;;;2.40;;
73672;SDS011;61972;19.480;-99.240;2022-08-03T08:27:43;3.33;;;2.08;;
73672;SDS011;61972;19.480;-99.240;2022-08-03T08:30:12;4.10;;;2.50;;
73672;SDS011;61972;19.480;-99.240;2022-08-03T08:32:40;3.87;;;2.43;;
73672;SDS011;61972;19.480;-99.240;2022-08-03T08:35:06;5.22;;;2.60;;
73672;SDS011;61972;19.480;-99.240;2022-08-03T08:37:33;3.70;;;2.40;;
73672;SDS011;61972;19.480;-99.240;2022-08-03T08:40:00;3.13;;;2.30;;
73672;SDS011;61972;19.480;-99.240;2022-08-03T08:42:26;3.85;;;2.60;;
73672;SDS011;61972;19.480;-99.240;2022-08-03T08:44:53;3.20;;;2.20;;
73672;SDS011;61972;19.480;-99.240;2022-08-03T08:47:23;3.50;;;2.22;;
73672;SDS011;61972;19.480;-99.240;2022-08-03T08:49:51;4.10;;;2.50;;
73672;SDS011;61972;19.480;-99.240;2022-08-03T08:52:23;3.83;;;2.58;;
73672;SDS011;61972;19.480;-99.240;2022-08-03T08:54:57;3.60;;;2.30;;
73672;SDS011;61972;19.480;-99.240;2022-08-03T08:57:26;3.80;;;2.57;;
73672;SDS011;61972;19.480;-99.240;2022-08-03T08:59:55;3.70;;;2.33;;
73672;SDS011;61972;19.480;-99.240;2022-08-03T09:02:22;4.38;;;2.78;;
73672;SDS011;61972;19.480;-99.240;2022-08-03T09:04:52;5.25;;;2.75;;
73672;SDS011;61972;19.480;-99.240;2022-08-03T09:07:19;3.80;;;2.55;;
73672;SDS011;61972;19.480;-99.240;2022-08-03T09:09:49;3.93;;;2.40;;
73672;SDS011;61972;19.480;-99.240;2022-08-03T09:12:15;4.88;;;2.63;;
73672;SDS011;61972;19.480;-99.240;2022-08-03T09:14:41;4.05;;;2.67;;
73672;SDS011;61972;19.480;-99.240;2022-08-03T09:17:10;4.38;;;2.70;;
73672;SDS011;61972;19.480;-99.240;2022-08-03T09:19:36;3.80;;;2.50;;
73672;SDS011;61972;19.480;-99.240;2022-08-03T09:24:37;4.05;;;2.50;;
73672;SDS011;61972;19.480;-99.240;2022-08-03T09:27:19;3.78;;;2.55;;
73672;SDS011;61972;19.480;-99.240;2022-08-03T09:29:49;5.78;;;2.33;;
73672;SDS011;61972;19.480;-99.240;2022-08-03T09:32:18;5.38;;;2.65;;
73672;SDS011;61972;19.480;-99.240;2022-08-03T09:34:49;4.13;;;2.30;;
73672;SDS011;61972;19.480;-99.240;2022-08-03T09:37:18;4.38;;;2.42;;
73672;SDS011;61972;19.480;-99.240;2022-08-03T09:39:47;3.85;;;2.75;;
73672;SDS011;61972;19.480;-99.240;2022-08-03T09:42:14;4.45;;;2.70;;
73672;SDS011;61972;19.480;-99.240;2022-08-03T09:44:48;3.85;;;2.47;;
73672;SDS011;61972;19.480;-99.240;2022-08-03T09:47:25;7.80;;;6.00;;
73672;SDS011;61972;19.480;-99.240;2022-08-03T09:49:59;6.60;;;4.95;;
73672;SDS011;61972;19.480;-99.240;2022-08-03T09:52:30;8.90;;;5.00;;
73672;SDS011;61972;19.480;-99.240;2022-08-03T09:54:59;8.15;;;5.10;;
73672;SDS011;61972;19.480;-99.240;2022-08-03T09:57:27;7.07;;;5.30;;
73672;SDS011;61972;19.480;-99.240;2022-08-03T10:00:05;9.50;;;5.60;;
73672;SDS011;61972;19.480;-99.240;2022-08-03T10:02:35;7.30;;;5.00;;
73672;SDS011;61972;19.480;-99.240;2022-08-03T10:05:02;8.98;;;5.05;;
73672;SDS011;61972;19.480;-99.240;2022-08-03T10:07:29;12.57;;;5.75;;
73672;SDS011;61972;19.480;-99.240;2022-08-03T10:10:06;8.88;;;5.03;;
73672;SDS011;61972;19.480;-99.240;2022-08-03T10:12:34;9.07;;;4.27;;
73672;SDS011;61972;19.480;-99.240;2022-08-03T10:15:01;7.50;;;4.60;;
73672;SDS011;61972;19.480;-99.240;2022-08-03T10:17:27;8.82;;;4.43;;
73672;SDS011;61972;19.480;-99.240;2022-08-03T10:19:53;8.48;;;4.50;;
73672;SDS011;61972;19.480;-99.240;2022-08-03T10:22:23;7.68;;;4.40;;
73672;SDS011;61972;19.480;-99.240;2022-08-03T10:27:36;8.45;;;4.90;;
73672;SDS011;61972;19.480;-99.240;2022-08-03T10:30:08;6.93;;;4.57;;
73672;SDS011;61972;19.480;-99.240;2022-08-03T10:32:48;8.23;;;4.03;;
73672;SDS011;61972;19.480;-99.240;2022-08-03T10:35:21;6.03;;;4.10;;
73672;SDS011;61972;19.480;-99.240;2022-08-03T10:37:57;7.73;;;4.60;;
73672;SDS011;61972;19.480;-99.240;2022-08-03T10:40:25;9.43;;;4.55;;
73672;SDS011;61972;19.480;-99.240;2022-08-03T10:42:54;6.45;;;4.25;;
73672;SDS011;61972;19.480;-99.240;2022-08-03T10:45:25;6.65;;;4.60;;
73672;SDS011;61972;19.480;-99.240;2022-08-03T10:47:52;6.18;;;4.25;;
73672;SDS011;61972;19.480;-99.240;2022-08-03T10:50:21;7.13;;;4.27;;
73672;SDS011;61972;19.480;-99.240;2022-08-03T10:52:52;8.13;;;4.40;;
73672;SDS011;61972;19.480;-99.240;2022-08-03T11:01:09;7.18;;;4.30;;
73672;SDS011;61972;19.480;-99.240;2022-08-03T11:04:36;5.93;;;4.30;;
73672;SDS011;61972;19.480;-99.240;2022-08-03T11:06:31;5.80;;;3.90;;
73672;SDS011;61972;19.480;-99.240;2022-08-03T11:11:36;6.10;;;4.32;;
73672;SDS011;61972;19.480;-99.240;2022-08-03T11:14:06;6.07;;;4.10;;
73672;SDS011;61972;19.480;-99.240;2022-08-03T11:16:35;5.90;;;4.17;;
73672;SDS011;61972;19.480;-99.240;2022-08-03T11:19:05;5.75;;;3.67;;
73672;SDS011;61972;19.480;-99.240;2022-08-03T11:35:11;6.82;;;4.00;;
73672;SDS011;61972;19.480;-99.240;2022-08-03T11:48:35;6.20;;;4.20;;
73672;SDS011;61972;19.480;-99.240;2022-08-03T11:51:04;5.78;;;3.83;;
73672;SDS011;61972;19.480;-99.240;2022-08-03T11:53:31;7.00;;;3.83;;
73672;SDS011;61972;19.480;-99.240;2022-08-03T11:55:59;5.13;;;3.70;;
73672;SDS011;61972;19.480;-99.240;2022-08-03T11:58:27;5.82;;;3.70;;
73672;SDS011;61972;19.480;-99.240;2022-08-03T12:01:11;6.22;;;4.03;;
73672;SDS011;61972;19.480;-99.240;2022-08-03T12:03:41;6.45;;;3.70;;
73672;SDS011;61972;19.480;-99.240;2022-08-03T12:06:11;5.65;;;4.10;;
73672;SDS011;61972;19.480;-99.240;2022-08-03T12:08:39;5.23;;;3.63;;
73672;SDS011;61972;19.480;-99.240;2022-08-03T12:11:08;5.40;;;3.55;;
73672;SDS011;61972;19.480;-99.240;2022-08-03T12:13:42;5.75;;;3.90;;
73672;SDS011;61972;19.480;-99.240;2022-08-03T12:16:20;5.97;;;3.63;;
73672;SDS011;61972;19.480;-99.240;2022-08-03T12:18:57;5.28;;;3.70;;
73672;SDS011;61972;19.480;-99.240;2022-08-03T12:21:25;5.10;;;3.57;;
73672;SDS011;61972;19.480;-99.240;2022-08-03T12:23:55;6.85;;;3.70;;
73672;SDS011;61972;19.480;-99.240;2022-08-03T12:26:24;6.03;;;4.13;;
73672;SDS011;61972;19.480;-99.240;2022-08-03T12:28:50;6.15;;;3.80;;
73672;SDS011;61972;19.480;-99.240;2022-08-03T12:31:17;4.95;;;3.65;;
73672;SDS011;61972;19.480;-99.240;2022-08-03T12:36:52;6.50;;;3.40;;
73672;SDS011;61972;19.480;-99.240;2022-08-03T12:39:24;5.10;;;3.67;;
73672;SDS011;61972;19.480;-99.240;2022-08-03T12:41:52;4.97;;;3.60;;
73672;SDS011;61972;19.480;-99.240;2022-08-03T12:44:28;6.07;;;3.50;;
73672;SDS011;61972;19.480;-99.240;2022-08-03T12:46:58;5.70;;;3.50;;
73672;SDS011;61972;19.480;-99.240;2022-08-03T12:49:26;6.70;;;3.88;;
73672;SDS011;61972;19.480;-99.240;2022-08-03T12:54:24;4.93;;;3.42;;
73672;SDS011;61972;19.480;-99.240;2022-08-03T12:57:07;4.53;;;3.22;;
73672;SDS011;61972;19.480;-99.240;2022-08-03T12:59:41;5.03;;;3.50;;
73672;SDS011;61972;19.480;-99.240;2022-08-03T13:02:14;4.95;;;3.50;;
73672;SDS011;61972;19.480;-99.240;2022-08-03T13:04:42;5.50;;;3.45;;
73672;SDS011;61972;19.480;-99.240;2022-08-03T13:07:12;5.82;;;3.50;;
73672;SDS011;61972;19.480;-99.240;2022-08-03T13:09:49;4.78;;;3.40;;
73672;SDS011;61972;19.480;-99.240;2022-08-03T13:12:21;4.80;;;3.37;;
73672;SDS011;61972;19.480;-99.240;2022-08-03T13:14:59;4.97;;;3.53;;
73672;SDS011;61972;19.480;-99.240;2022-08-03T13:17:26;5.18;;;3.63;;
73672;SDS011;61972;19.480;-99.240;2022-08-03T13:19:54;6.15;;;3.65;;
73672;SDS011;61972;19.480;-99.240;2022-08-03T13:22:24;5.10;;;3.35;;
73672;SDS011;61972;19.480;-99.240;2022-08-03T13:24:53;5.33;;;3.50;;
73672;SDS011;61972;19.480;-99.240;2022-08-03T13:27:21;6.63;;;3.78;;
73672;SDS011;61972;19.480;-99.240;2022-08-03T13:29:48;6.25;;;3.70;;
73672;SDS011;61972;19.480;-99.240;2022-08-03T13:32:15;4.97;;;3.22;;
73672;SDS011;61972;19.480;-99.240;2022-08-03T13:34:41;4.63;;;3.40;;
73672;SDS011;61972;19.480;-99.240;2022-08-03T13:37:07;4.70;;;3.20;;
73672;SDS011;61972;19.480;-99.240;2022-08-03T13:39:33;5.15;;;3.38;;
73672;SDS011;61972;19.480;-99.240;2022-08-03T13:41:59;5.32;;;3.65;;
73672;SDS011;61972;19.480;-99.240;2022-08-03T13:44:26;5.07;;;3.35;;
73672;SDS011;61972;19.480;-99.240;2022-08-03T13:46:52;4.82;;;3.40;;
73672;SDS011;61972;19.480;-99.240;2022-08-03T13:49:18;4.87;;;3.40;;
73672;SDS011;61972;19.480;-99.240;2022-08-03T13:51:44;5.30;;;3.20;;
73672;SDS011;61972;19.480;-99.240;2022-08-03T13:54:10;5.10;;;3.58;;
73672;SDS011;61972;19.480;-99.240;2022-08-03T13:56:36;5.05;;;3.35;;
73672;SDS011;61972;19.480;-99.240;2022-08-03T13:59:04;7.45;;;3.65;;
73672;SDS011;61972;19.480;-99.240;2022-08-03T14:01:30;5.27;;;3.30;;
73672;SDS011;61972;19.480;-99.240;2022-08-03T14:03:56;5.28;;;3.42;;
73672;SDS011;61972;19.480;-99.240;2022-08-03T14:06:27;4.68;;;3.17;;
73672;SDS011;61972;19.480;-99.240;2022-08-03T14:08:53;6.05;;;3.80;;
73672;SDS011;61972;19.480;-99.240;2022-08-03T14:11:26;5.93;;;3.50;;
73672;SDS011;61972;19.480;-99.240;2022-08-03T14:13:53;4.50;;;3.10;;
73672;SDS011;61972;19.480;-99.240;2022-08-03T14:16:19;9.60;;;3.80;;
73672;SDS011;61972;19.480;-99.240;2022-08-03T14:18:45;5.38;;;3.20;;
73672;SDS011;61972;19.480;-99.240;2022-08-03T14:21:11;4.90;;;3.40;;
73672;SDS011;61972;19.480;-99.240;2022-08-03T14:23:38;5.35;;;3.15;;
73672;SDS011;61972;19.480;-99.240;2022-08-03T14:26:05;5.00;;;3.40;;
73672;SDS011;61972;19.480;-99.240;2022-08-03T14:28:32;4.43;;;3.20;;
73672;SDS011;61972;19.480;-99.240;2022-08-03T14:30:58;4.70;;;3.45;;
73672;SDS011;61972;19.480;-99.240;2022-08-03T14:33:25;4.82;;;3.40;;
73672;SDS011;61972;19.480;-99.240;2022-08-03T14:35:52;4.45;;;3.22;;
73672;SDS011;61972;19.480;-99.240;2022-08-03T14:38:19;4.93;;;3.00;;
73672;SDS011;61972;19.480;-99.240;2022-08-03T14:40:45;4.70;;;3.30;;
73672;SDS011;61972;19.480;-99.240;2022-08-03T14:43:12;4.93;;;3.17;;
73672;SDS011;61972;19.480;-99.240;2022-08-03T14:45:39;5.30;;;3.70;;
73672;SDS011;61972;19.480;-99.240;2022-08-03T14:48:05;5.32;;;3.42;;
73672;SDS011;61972;19.480;-99.240;2022-08-03T14:50:31;5.47;;;3.43;;
73672;SDS011;61972;19.480;-99.240;2022-08-03T14:52:57;6.20;;;3.47;;
73672;SDS011;61972;19.480;-99.240;2022-08-03T14:55:24;4.63;;;3.05;;
73672;SDS011;61972;19.480;-99.240;2022-08-03T14:57:50;5.70;;;3.75;;
73672;SDS011;61972;19.480;-99.240;2022-08-03T15:00:16;4.05;;;3.00;;
73672;SDS011;61972;19.480;-99.240;2022-08-03T15:02:42;4.37;;;3.00;;
73672;SDS011;61972;19.480;-99.240;2022-08-03T15:05:08;5.40;;;3.50;;
73672;SDS011;61972;19.480;-99.240;2022-08-03T15:07:37;4.70;;;3.30;;
73672;SDS011;61972;19.480;-99.240;2022-08-03T15:10:03;4.40;;;3.20;;
73672;SDS011;61972;19.480;-99.240;2022-08-03T15:12:30;4.70;;;3.38;;
73672;SDS011;61972;19.480;-99.240;2022-08-03T15:14:56;4.93;;;3.20;;
73672;SDS011;61972;19.480;-99.240;2022-08-03T15:17:22;5.85;;;3.58;;
73672;SDS011;61972;19.480;-99.240;2022-08-03T15:19:48;5.00;;;3.28;;
73672;SDS011;61972;19.480;-99.240;2022-08-03T15:22:14;4.80;;;2.75;;
73672;SDS011;61972;19.480;-99.240;2022-08-03T15:24:41;5.25;;;3.35;;
73672;SDS011;61972;19.480;-99.240;2022-08-03T15:27:07;4.87;;;3.23;;
73672;SDS011;61972;19.480;-99.240;2022-08-03T15:29:33;4.72;;;3.28;;
73672;SDS011;61972;19.480;-99.240;2022-08-03T15:31:59;4.70;;;3.33;;